createdAt,value
2019-03-06T00:00:36.114Z,77.50
2019-03-06T00:01:11.076Z,77.33
2019-03-06T00:01:42.384Z,77.33
2019-03-06T00:02:13.560Z,77.31
2019-03-06T00:02:44.769Z,77.31
2019-03-06T00:03:16.018Z,77.42
2019-03-06T00:03:47.230Z,77.57
2019-03-06T00:04:19.416Z,77.56
2019-03-06T00:04:50.723Z,77.50
2019-03-06T00:05:21.896Z,77.50
2019-03-06T00:05:53.121Z,77.17
2019-03-06T00:06:24.292Z,77.41
2019-03-06T00:06:55.497Z,77.65
2019-03-06T00:07:26.661Z,77.65
2019-03-06T00:07:57.853Z,77.51
2019-03-06T00:08:29.342Z,77.55
2019-03-06T00:09:00.544Z,77.55
2019-03-06T00:09:31.698Z,77.57
2019-03-06T00:10:24.788Z,77.46
2019-03-06T00:10:55.955Z,77.41
2019-03-06T00:11:27.258Z,77.41
2019-03-06T00:11:58.424Z,77.35
2019-03-06T00:12:29.616Z,77.35
2019-03-06T00:13:00.823Z,77.42
2019-03-06T00:13:32.003Z,77.42
2019-03-06T00:14:03.374Z,77.42
2019-03-06T00:14:34.561Z,77.47
2019-03-06T00:15:06.839Z,77.41
2019-03-06T00:15:39.920Z,77.37
2019-03-06T00:16:11.093Z,77.29
2019-03-06T00:16:42.267Z,77.29
2019-03-06T00:17:13.739Z,77.22
2019-03-06T00:17:45.013Z,77.17
2019-03-06T00:18:16.197Z,77.19
2019-03-06T00:18:47.447Z,77.19
2019-03-06T00:19:18.627Z,77.31
2019-03-06T00:19:49.821Z,77.32
2019-03-06T00:20:21.003Z,77.32
2019-03-06T00:20:52.159Z,77.24
2019-03-06T00:21:23.321Z,77.34
2019-03-06T00:21:54.494Z,77.34
2019-03-06T00:22:25.658Z,77.14
2019-03-06T00:22:56.825Z,77.14
2019-03-06T00:23:28.005Z,77.18
2019-03-06T00:23:59.455Z,77.15
2019-03-06T00:24:30.611Z,77.15
2019-03-06T00:25:03.008Z,77.18
2019-03-06T00:25:35.240Z,77.21
2019-03-06T00:26:06.389Z,77.25
2019-03-06T00:26:37.562Z,77.15
2019-03-06T00:27:08.733Z,77.29
2019-03-06T00:27:39.893Z,77.29
2019-03-06T00:28:11.072Z,77.27
2019-03-06T00:28:42.216Z,77.28
2019-03-06T00:29:14.360Z,77.29
2019-03-06T00:29:46.531Z,77.22
2019-03-06T00:30:18.969Z,77.23
2019-03-06T00:30:50.236Z,77.18
2019-03-06T00:31:21.424Z,77.22
2019-03-06T00:31:52.996Z,77.09
2019-03-06T00:32:25.151Z,77.09
2019-03-06T00:32:56.346Z,76.91
2019-03-06T00:33:27.512Z,77.06
2019-03-06T00:33:58.662Z,77.06
2019-03-06T00:34:29.877Z,76.95
2019-03-06T00:35:01.579Z,76.98
2019-03-06T00:35:43.526Z,76.93
2019-03-06T00:36:16.379Z,76.93
2019-03-06T00:36:47.584Z,76.88
2019-03-06T00:37:18.761Z,76.88
2019-03-06T00:37:49.993Z,76.89
2019-03-06T00:38:21.171Z,76.87
2019-03-06T00:38:52.404Z,76.87
2019-03-06T00:39:24.188Z,76.87
2019-03-06T00:39:57.259Z,76.86
2019-03-06T00:40:39.135Z,76.94
2019-03-06T00:41:21.073Z,76.85
2019-03-06T00:41:52.350Z,76.85
2019-03-06T00:42:23.529Z,76.90
2019-03-06T00:42:54.722Z,76.86
2019-03-06T00:43:25.923Z,76.79
2019-03-06T00:43:57.077Z,76.68
2019-03-06T00:44:28.277Z,76.79
2019-03-06T00:44:59.482Z,76.73
2019-03-06T00:45:30.718Z,76.63
2019-03-06T00:46:01.872Z,76.63
2019-03-06T00:46:33.362Z,76.68
2019-03-06T00:47:04.508Z,76.61
2019-03-06T00:47:35.777Z,76.54
2019-03-06T00:48:07.166Z,76.56
2019-03-06T00:48:38.542Z,76.56
2019-03-06T00:49:09.867Z,76.58
2019-03-06T00:49:41.230Z,76.48
2019-03-06T00:50:12.532Z,76.48
2019-03-06T00:50:43.891Z,76.48
2019-03-06T00:51:15.206Z,76.53
2019-03-06T00:51:46.557Z,76.59
2019-03-06T00:52:18.869Z,76.60
2019-03-06T00:52:50.240Z,76.60
2019-03-06T00:53:21.685Z,76.62
2019-03-06T00:53:53.050Z,76.68
2019-03-06T00:54:24.400Z,76.68
2019-03-06T00:54:55.729Z,76.59
2019-03-06T00:55:27.053Z,76.59
2019-03-06T00:55:58.403Z,76.56
2019-03-06T00:56:29.750Z,76.61
2019-03-06T00:57:01.092Z,76.60
2019-03-06T00:57:32.420Z,76.68
2019-03-06T00:58:03.782Z,76.57
2019-03-06T00:58:35.210Z,76.57
2019-03-06T00:59:06.553Z,76.47
2019-03-06T00:59:37.895Z,76.49
2019-03-06T01:00:20.393Z,76.41
2019-03-06T01:00:51.934Z,76.59
2019-03-06T01:01:23.278Z,76.49
2019-03-06T01:01:54.592Z,76.49
2019-03-06T01:02:25.944Z,76.42
2019-03-06T01:02:57.286Z,76.44
2019-03-06T01:03:29.046Z,76.46
2019-03-06T01:04:00.402Z,76.61
2019-03-06T01:04:32.743Z,76.61
2019-03-06T01:05:07.215Z,76.52
2019-03-06T01:05:38.550Z,76.52
2019-03-06T01:06:09.866Z,76.61
2019-03-06T01:06:41.241Z,76.50
2019-03-06T01:07:12.588Z,76.42
2019-03-06T01:07:43.922Z,76.42
2019-03-06T01:08:15.304Z,76.39
2019-03-06T01:08:46.658Z,76.44
2019-03-06T01:09:17.867Z,76.44
2019-03-06T01:09:49.242Z,76.47
2019-03-06T01:10:20.559Z,76.50
2019-03-06T01:10:51.925Z,76.50
2019-03-06T01:11:23.431Z,76.40
2019-03-06T01:11:54.795Z,76.37
2019-03-06T01:12:26.005Z,76.31
2019-03-06T01:12:57.349Z,76.41
2019-03-06T01:13:28.656Z,76.41
2019-03-06T01:14:00.020Z,76.49
2019-03-06T01:14:31.332Z,76.45
2019-03-06T01:15:05.603Z,76.45
2019-03-06T01:15:36.926Z,76.54
2019-03-06T01:16:08.293Z,76.54
2019-03-06T01:16:39.603Z,76.45
2019-03-06T01:17:10.983Z,76.51
2019-03-06T01:17:42.303Z,76.43
2019-03-06T01:18:13.670Z,76.43
2019-03-06T01:18:46.012Z,76.40
2019-03-06T01:19:17.465Z,76.58
2019-03-06T01:19:48.785Z,76.58
2019-03-06T01:20:20.135Z,76.39
2019-03-06T01:20:51.479Z,76.45
2019-03-06T01:21:22.809Z,76.45
2019-03-06T01:21:54.184Z,76.38
2019-03-06T01:22:25.536Z,76.38
2019-03-06T01:22:59.490Z,76.38
2019-03-06T01:23:30.883Z,76.39
2019-03-06T01:24:02.432Z,76.59
2019-03-06T01:24:33.756Z,76.59
2019-03-06T01:25:13.086Z,76.39
2019-03-06T01:25:44.394Z,76.45
2019-03-06T01:26:15.752Z,76.45
2019-03-06T01:26:46.966Z,76.34
2019-03-06T01:27:18.238Z,76.34
2019-03-06T01:27:49.631Z,76.34
2019-03-06T01:28:21.010Z,76.36
2019-03-06T01:28:52.328Z,76.31
2019-03-06T01:29:23.994Z,76.38
2019-03-06T01:29:55.304Z,76.40
2019-03-06T01:30:26.872Z,76.38
2019-03-06T01:30:58.196Z,76.63
2019-03-06T01:31:29.728Z,76.63
2019-03-06T01:32:01.042Z,76.36
2019-03-06T01:32:32.612Z,76.36
2019-03-06T01:33:08.680Z,76.40
2019-03-06T01:33:45.809Z,76.44
2019-03-06T01:34:35.256Z,76.46
2019-03-06T01:35:22.194Z,76.38
2019-03-06T01:36:01.085Z,76.38
2019-03-06T01:36:34.559Z,76.41
2019-03-06T01:37:22.512Z,76.37
2019-03-06T01:37:58.921Z,76.37
2019-03-06T01:38:39.297Z,76.36
2019-03-06T01:39:28.909Z,76.33
2019-03-06T01:40:02.155Z,76.26
2019-03-06T01:40:47.356Z,76.26
2019-03-06T01:41:32.407Z,76.27
2019-03-06T01:42:05.635Z,76.32
2019-03-06T01:42:38.863Z,76.31
2019-03-06T01:43:14.959Z,76.27
2019-03-06T01:43:54.147Z,76.24
2019-03-06T01:44:30.293Z,76.09
2019-03-06T01:45:01.885Z,76.09
2019-03-06T01:45:33.269Z,76.20
2019-03-06T01:46:04.697Z,76.30
2019-03-06T01:46:36.069Z,76.30
2019-03-06T01:47:07.473Z,76.21
2019-03-06T01:47:38.899Z,76.21
2019-03-06T01:48:10.241Z,76.26
2019-03-06T01:48:41.635Z,76.28
2019-03-06T01:49:13.027Z,76.40
2019-03-06T01:49:44.406Z,76.40
2019-03-06T01:50:15.626Z,76.30
2019-03-06T01:50:47.200Z,76.26
2019-03-06T01:51:18.512Z,76.26
2019-03-06T01:51:49.892Z,76.34
2019-03-06T01:52:21.183Z,76.34
2019-03-06T01:52:52.538Z,76.14
2019-03-06T01:53:23.851Z,76.20
2019-03-06T01:53:55.230Z,76.19
2019-03-06T01:54:26.530Z,76.00
2019-03-06T01:54:57.796Z,76.11
2019-03-06T01:55:29.090Z,76.12
2019-03-06T01:56:00.451Z,76.10
2019-03-06T01:56:31.982Z,75.84
2019-03-06T01:57:03.334Z,75.92
2019-03-06T01:57:34.739Z,75.92
2019-03-06T01:58:06.106Z,75.84
2019-03-06T01:58:37.412Z,75.92
2019-03-06T01:59:08.776Z,75.92
2019-03-06T01:59:40.082Z,75.92
2019-03-06T02:00:15.390Z,75.96
2019-03-06T02:00:46.716Z,75.94
2019-03-06T02:01:18.086Z,75.85
2019-03-06T02:01:49.386Z,75.85
2019-03-06T02:02:20.744Z,76.03
2019-03-06T02:02:52.055Z,75.89
2019-03-06T02:03:23.416Z,75.89
2019-03-06T02:03:54.736Z,76.03
2019-03-06T02:04:26.093Z,75.96
2019-03-06T02:04:57.413Z,76.09
2019-03-06T02:05:28.991Z,76.09
2019-03-06T02:06:00.297Z,76.06
2019-03-06T02:06:31.883Z,76.09
2019-03-06T02:07:03.699Z,76.06
2019-03-06T02:07:35.045Z,76.01
2019-03-06T02:08:06.335Z,76.03
2019-03-06T02:08:37.737Z,76.02
2019-03-06T02:09:09.050Z,76.06
2019-03-06T02:09:40.737Z,76.11
2019-03-06T02:10:13.137Z,76.24
2019-03-06T02:10:44.611Z,76.20
2019-03-06T02:11:15.934Z,76.24
2019-03-06T02:11:47.297Z,76.20
2019-03-06T02:12:18.620Z,76.23
2019-03-06T02:12:49.992Z,76.23
2019-03-06T02:13:22.392Z,76.18
2019-03-06T02:13:53.776Z,76.21
2019-03-06T02:14:25.150Z,76.18
2019-03-06T02:14:56.517Z,76.23
2019-03-06T02:15:27.832Z,76.33
2019-03-06T02:15:59.479Z,76.33
2019-03-06T02:16:30.783Z,76.20
2019-03-06T02:17:02.436Z,76.36
2019-03-06T02:17:33.754Z,76.48
2019-03-06T02:18:05.122Z,76.48
2019-03-06T02:18:36.436Z,76.63
2019-03-06T02:19:07.796Z,76.76
2019-03-06T02:19:39.496Z,76.88
2019-03-06T02:20:15.654Z,76.90
2019-03-06T02:20:47.966Z,77.05
2019-03-06T02:21:19.316Z,77.05
2019-03-06T02:21:50.678Z,76.93
2019-03-06T02:22:22.214Z,76.93
2019-03-06T02:22:53.576Z,76.68
2019-03-06T02:23:25.876Z,76.85
2019-03-06T02:23:57.219Z,76.90
2019-03-06T02:24:28.834Z,76.99
2019-03-06T02:25:00.340Z,76.95
2019-03-06T02:25:31.880Z,76.95
2019-03-06T02:26:03.219Z,76.88
2019-03-06T02:26:34.567Z,76.92
2019-03-06T02:27:05.907Z,76.94
2019-03-06T02:27:37.243Z,76.94
2019-03-06T02:28:08.586Z,76.99
2019-03-06T02:28:39.922Z,76.99
2019-03-06T02:29:11.348Z,77.05
2019-03-06T02:29:42.677Z,77.01
2019-03-06T02:30:20.290Z,77.07
2019-03-06T02:30:51.636Z,77.20
2019-03-06T02:31:23.197Z,77.20
2019-03-06T02:31:54.522Z,77.31
2019-03-06T02:32:25.886Z,77.31
2019-03-06T02:32:57.185Z,77.34
2019-03-06T02:33:28.535Z,77.39
2019-03-06T02:33:59.899Z,77.41
2019-03-06T02:34:32.255Z,77.41
2019-03-06T02:35:04.675Z,77.45
2019-03-06T02:35:36.036Z,77.45
2019-03-06T02:36:07.345Z,77.29
2019-03-06T02:36:38.689Z,77.23
2019-03-06T02:37:10.010Z,77.32
2019-03-06T02:37:41.389Z,77.30
2019-03-06T02:38:12.929Z,77.31
2019-03-06T02:38:44.291Z,77.31
2019-03-06T02:39:15.614Z,77.45
2019-03-06T02:39:46.955Z,77.45
2019-03-06T02:40:18.280Z,77.44
2019-03-06T02:40:49.708Z,77.67
2019-03-06T02:41:21.074Z,77.96
2019-03-06T02:41:52.393Z,77.96
2019-03-06T02:42:23.734Z,78.07
2019-03-06T02:42:55.051Z,78.25
2019-03-06T02:43:26.408Z,78.30
2019-03-06T02:43:57.735Z,78.57
2019-03-06T02:44:29.432Z,78.57
2019-03-06T02:45:00.940Z,78.61
2019-03-06T02:45:33.800Z,78.69
2019-03-06T02:46:05.162Z,78.81
2019-03-06T02:46:36.458Z,78.91
2019-03-06T02:47:07.762Z,78.91
2019-03-06T02:47:40.116Z,78.92
2019-03-06T02:48:11.427Z,78.75
2019-03-06T02:48:43.901Z,78.76
2019-03-06T02:49:15.216Z,78.81
2019-03-06T02:49:46.592Z,78.81
2019-03-06T02:50:18.211Z,78.66
2019-03-06T02:50:49.551Z,78.66
2019-03-06T02:51:20.873Z,78.64
2019-03-06T02:51:52.356Z,78.72
2019-03-06T02:52:23.635Z,78.76
2019-03-06T02:52:55.016Z,78.47
2019-03-06T02:53:26.302Z,78.47
2019-03-06T02:53:59.038Z,78.91
2019-03-06T02:54:30.359Z,79.01
2019-03-06T02:55:01.878Z,78.92
2019-03-06T02:55:33.178Z,78.92
2019-03-06T02:56:04.562Z,79.08
2019-03-06T02:56:35.869Z,79.08
2019-03-06T02:57:07.255Z,79.05
2019-03-06T02:57:40.537Z,78.98
2019-03-06T02:58:13.818Z,78.96
2019-03-06T02:58:49.974Z,78.96
2019-03-06T02:59:23.271Z,79.04
2019-03-06T02:59:56.574Z,79.13
2019-03-06T03:00:46.343Z,79.13
2019-03-06T03:01:31.907Z,79.21
2019-03-06T03:02:05.278Z,79.17
2019-03-06T03:02:38.549Z,79.21
2019-03-06T03:03:12.756Z,79.30
2019-03-06T03:03:49.883Z,79.32
2019-03-06T03:04:24.185Z,79.32
2019-03-06T03:05:06.355Z,79.24
2019-03-06T03:05:39.742Z,79.24
2019-03-06T03:06:18.623Z,79.22
2019-03-06T03:06:51.903Z,79.18
2019-03-06T03:07:23.221Z,79.14
2019-03-06T03:07:54.598Z,79.15
2019-03-06T03:08:25.906Z,79.14
2019-03-06T03:08:57.290Z,78.66
2019-03-06T03:09:28.589Z,78.66
2019-03-06T03:09:59.982Z,79.12
2019-03-06T03:10:31.310Z,79.04
2019-03-06T03:11:03.035Z,79.04
2019-03-06T03:11:34.351Z,79.17
2019-03-06T03:12:05.715Z,79.17
2019-03-06T03:12:37.007Z,78.99
2019-03-06T03:13:08.374Z,79.12
2019-03-06T03:13:39.690Z,79.12
2019-03-06T03:14:11.052Z,78.92
2019-03-06T03:14:42.366Z,78.96
2019-03-06T03:15:13.762Z,78.97
2019-03-06T03:15:45.067Z,78.89
2019-03-06T03:16:16.404Z,78.89
2019-03-06T03:16:47.720Z,78.88
2019-03-06T03:17:19.091Z,78.65
2019-03-06T03:17:50.521Z,78.65
2019-03-06T03:18:21.881Z,78.63
2019-03-06T03:18:53.199Z,78.52
2019-03-06T03:19:24.562Z,78.52
2019-03-06T03:19:55.844Z,78.52
2019-03-06T03:20:27.202Z,78.43
2019-03-06T03:20:58.516Z,78.47
2019-03-06T03:21:29.853Z,78.47
2019-03-06T03:22:01.241Z,78.46
2019-03-06T03:22:32.447Z,78.53
2019-03-06T03:23:03.760Z,78.53
2019-03-06T03:23:35.100Z,78.52
2019-03-06T03:24:06.395Z,78.52
2019-03-06T03:24:37.855Z,78.39
2019-03-06T03:25:09.207Z,78.05
2019-03-06T03:25:40.516Z,78.13
2019-03-06T03:26:11.816Z,78.13
2019-03-06T03:26:43.146Z,77.92
2019-03-06T03:27:14.505Z,77.92
2019-03-06T03:27:45.819Z,77.91
2019-03-06T03:28:19.761Z,77.85
2019-03-06T03:28:50.282Z,77.79
2019-03-06T03:29:21.653Z,77.56
2019-03-06T03:29:52.974Z,77.56
2019-03-06T03:30:24.331Z,77.56
2019-03-06T03:30:55.655Z,77.32
2019-03-06T03:31:27.320Z,77.33
2019-03-06T03:31:58.688Z,77.33
2019-03-06T03:32:30.136Z,77.36
2019-03-06T03:33:01.508Z,77.34
2019-03-06T03:33:32.820Z,77.34
2019-03-06T03:34:04.153Z,77.39
2019-03-06T03:34:35.535Z,77.37
2019-03-06T03:35:07.044Z,77.42
2019-03-06T03:35:38.407Z,77.42
2019-03-06T03:36:09.715Z,77.29
2019-03-06T03:36:41.082Z,77.30
2019-03-06T03:37:12.405Z,77.30
2019-03-06T03:37:43.771Z,77.19
2019-03-06T03:38:15.291Z,77.22
2019-03-06T03:38:46.643Z,77.22
2019-03-06T03:39:17.947Z,77.25
2019-03-06T03:39:49.283Z,77.21
2019-03-06T03:40:20.596Z,77.22
2019-03-06T03:40:52.017Z,77.21
2019-03-06T03:41:23.405Z,77.07
2019-03-06T03:41:54.804Z,77.13
2019-03-06T03:42:26.195Z,77.08
2019-03-06T03:42:57.548Z,76.85
2019-03-06T03:43:29.042Z,76.85
2019-03-06T03:44:00.402Z,76.94
2019-03-06T03:44:31.988Z,76.94
2019-03-06T03:45:08.143Z,76.77
2019-03-06T03:45:39.470Z,76.66
2019-03-06T03:46:11.047Z,76.67
2019-03-06T03:46:42.343Z,76.65
2019-03-06T03:47:13.718Z,76.55
2019-03-06T03:47:45.034Z,76.55
2019-03-06T03:48:16.396Z,76.39
2019-03-06T03:48:47.707Z,76.39
2019-03-06T03:49:19.083Z,76.77
2019-03-06T03:49:50.393Z,76.77
2019-03-06T03:50:21.791Z,76.75
2019-03-06T03:50:53.097Z,76.75
2019-03-06T03:51:24.450Z,76.77
2019-03-06T03:51:55.768Z,76.73
2019-03-06T03:52:28.161Z,76.64
2019-03-06T03:52:59.821Z,76.70
2019-03-06T03:53:31.212Z,76.70
2019-03-06T03:54:02.599Z,76.75
2019-03-06T03:54:33.996Z,76.73
2019-03-06T03:55:17.197Z,76.66
2019-03-06T03:55:48.586Z,76.48
2019-03-06T03:56:19.987Z,76.48
2019-03-06T03:56:51.360Z,76.48
2019-03-06T03:57:22.784Z,76.44
2019-03-06T03:57:54.187Z,76.47
2019-03-06T03:58:25.566Z,76.44
2019-03-06T03:58:56.867Z,76.48
2019-03-06T03:59:28.232Z,76.44
2019-03-06T03:59:59.548Z,76.56
2019-03-06T04:00:30.914Z,76.62
2019-03-06T04:01:02.224Z,76.45
2019-03-06T04:01:33.589Z,76.45
2019-03-06T04:02:05.000Z,76.49
2019-03-06T04:02:36.370Z,76.47
2019-03-06T04:03:07.714Z,76.47
2019-03-06T04:03:39.104Z,76.54
2019-03-06T04:04:10.488Z,76.54
2019-03-06T04:04:41.880Z,76.83
2019-03-06T04:05:13.268Z,76.83
2019-03-06T04:05:44.648Z,77.02
2019-03-06T04:06:16.090Z,77.48
2019-03-06T04:06:47.441Z,77.36
2019-03-06T04:07:18.826Z,77.11
2019-03-06T04:07:50.211Z,77.11
2019-03-06T04:08:21.567Z,77.14
2019-03-06T04:08:53.069Z,77.33
2019-03-06T04:09:24.426Z,77.46
2019-03-06T04:09:55.738Z,77.38
2019-03-06T04:10:27.101Z,77.26
2019-03-06T04:10:58.395Z,77.26
2019-03-06T04:11:29.763Z,77.56
2019-03-06T04:12:00.961Z,77.56
2019-03-06T04:12:34.217Z,77.79
2019-03-06T04:13:05.438Z,77.46
2019-03-06T04:13:36.689Z,77.56
2019-03-06T04:14:07.882Z,77.56
2019-03-06T04:14:39.202Z,77.33
2019-03-06T04:15:12.891Z,77.27
2019-03-06T04:15:44.115Z,77.31
2019-03-06T04:16:15.314Z,77.14
2019-03-06T04:16:46.859Z,77.14
2019-03-06T04:17:18.025Z,77.25
2019-03-06T04:17:49.260Z,77.22
2019-03-06T04:18:20.508Z,77.42
2019-03-06T04:18:51.776Z,77.42
2019-03-06T04:19:23.039Z,77.21
2019-03-06T04:19:54.403Z,77.21
2019-03-06T04:20:25.755Z,77.16
2019-03-06T04:20:57.007Z,77.14
2019-03-06T04:21:28.363Z,77.16
2019-03-06T04:21:59.589Z,77.16
2019-03-06T04:22:31.113Z,77.19
2019-03-06T04:23:02.366Z,77.24
2019-03-06T04:23:33.626Z,77.24
2019-03-06T04:24:04.817Z,77.27
2019-03-06T04:24:36.073Z,77.06
2019-03-06T04:25:08.456Z,77.19
2019-03-06T04:25:39.694Z,77.05
2019-03-06T04:26:10.875Z,77.05
2019-03-06T04:26:42.095Z,77.04
2019-03-06T04:27:13.279Z,76.95
2019-03-06T04:27:44.504Z,76.95
2019-03-06T04:28:15.762Z,76.72
2019-03-06T04:28:46.965Z,76.67
2019-03-06T04:29:18.373Z,76.46
2019-03-06T04:29:49.648Z,76.46
2019-03-06T04:30:20.933Z,76.61
2019-03-06T04:30:52.442Z,75.89
2019-03-06T04:31:23.605Z,75.92
2019-03-06T04:31:54.823Z,75.83
2019-03-06T04:32:25.994Z,75.83
2019-03-06T04:32:57.177Z,75.84
2019-03-06T04:33:28.395Z,75.96
2019-03-06T04:33:59.791Z,76.04
2019-03-06T04:34:31.106Z,75.97
2019-03-06T04:35:03.655Z,75.97
2019-03-06T04:35:34.904Z,75.94
2019-03-06T04:36:06.295Z,76.07
2019-03-06T04:36:37.501Z,75.88
2019-03-06T04:37:08.756Z,75.88
2019-03-06T04:37:39.959Z,75.76
2019-03-06T04:38:11.153Z,75.76
2019-03-06T04:38:43.869Z,75.68
2019-03-06T04:39:15.138Z,75.32
2019-03-06T04:39:46.327Z,75.48
2019-03-06T04:40:17.515Z,75.48
2019-03-06T04:40:48.694Z,75.60
2019-03-06T04:41:19.944Z,75.50
2019-03-06T04:41:51.171Z,75.41
2019-03-06T04:42:22.448Z,75.38
2019-03-06T04:42:53.908Z,75.21
2019-03-06T04:43:25.146Z,75.21
2019-03-06T04:43:56.654Z,75.49
2019-03-06T04:44:27.812Z,75.53
2019-03-06T04:44:59.017Z,75.52
2019-03-06T04:45:30.172Z,75.43
2019-03-06T04:46:01.390Z,75.55
2019-03-06T04:46:33.546Z,75.55
2019-03-06T04:47:04.764Z,75.33
2019-03-06T04:47:35.930Z,75.31
2019-03-06T04:48:07.137Z,75.44
2019-03-06T04:48:38.309Z,75.42
2019-03-06T04:49:09.537Z,75.33
2019-03-06T04:49:40.877Z,75.40
2019-03-06T04:50:13.106Z,75.28
2019-03-06T04:50:44.643Z,75.28
2019-03-06T04:51:15.871Z,75.42
2019-03-06T04:51:47.105Z,75.42
2019-03-06T04:52:18.293Z,75.41
2019-03-06T04:52:49.583Z,75.41
2019-03-06T04:53:20.730Z,75.41
2019-03-06T04:53:51.925Z,75.41
2019-03-06T04:54:23.085Z,75.54
2019-03-06T04:54:54.271Z,75.34
2019-03-06T04:55:26.425Z,75.36
2019-03-06T04:55:57.628Z,75.34
2019-03-06T04:56:28.773Z,75.36
2019-03-06T04:57:00.069Z,75.42
2019-03-06T04:57:31.544Z,75.52
2019-03-06T04:58:02.773Z,75.48
2019-03-06T04:58:33.951Z,75.45
2019-03-06T04:59:05.173Z,75.45
2019-03-06T04:59:36.342Z,75.47
2019-03-06T05:00:22.401Z,75.47
2019-03-06T05:00:53.974Z,75.49
2019-03-06T05:01:27.126Z,75.45
2019-03-06T05:01:58.291Z,75.45
2019-03-06T05:02:29.583Z,75.45
2019-03-06T05:03:00.739Z,75.32
2019-03-06T05:03:31.946Z,75.32
2019-03-06T05:04:03.118Z,75.41
2019-03-06T05:04:34.314Z,75.46
2019-03-06T05:05:05.483Z,75.49
2019-03-06T05:05:36.682Z,75.45
2019-03-06T05:06:07.866Z,75.29
2019-03-06T05:06:39.067Z,75.43
2019-03-06T05:07:10.250Z,75.43
2019-03-06T05:07:41.546Z,75.42
2019-03-06T05:08:12.733Z,75.48
2019-03-06T05:08:43.908Z,75.43
2019-03-06T05:09:15.110Z,75.42
2019-03-06T05:09:46.322Z,75.44
2019-03-06T05:10:17.504Z,75.44
2019-03-06T05:10:48.675Z,75.38
2019-03-06T05:11:19.863Z,75.44
2019-03-06T05:11:51.039Z,75.51
2019-03-06T05:12:22.214Z,75.51
2019-03-06T05:12:53.410Z,75.44
2019-03-06T05:13:25.310Z,75.65
2019-03-06T05:13:56.718Z,75.65
2019-03-06T05:14:28.176Z,75.69
2019-03-06T05:14:59.644Z,75.63
2019-03-06T05:15:30.821Z,75.81
2019-03-06T05:16:02.038Z,75.81
2019-03-06T05:16:35.102Z,75.56
2019-03-06T05:17:08.208Z,75.72
2019-03-06T05:17:41.258Z,75.72
2019-03-06T05:18:14.356Z,75.82
2019-03-06T05:18:47.411Z,75.82
2019-03-06T05:19:18.631Z,75.90
2019-03-06T05:19:49.783Z,75.92
2019-03-06T05:20:21.005Z,75.90
2019-03-06T05:20:52.225Z,75.90
2019-03-06T05:21:24.230Z,75.84
2019-03-06T05:21:55.394Z,75.84
2019-03-06T05:22:26.789Z,75.84
2019-03-06T05:22:58.011Z,75.73
2019-03-06T05:23:29.401Z,75.69
2019-03-06T05:24:00.609Z,75.74
2019-03-06T05:24:31.940Z,75.74
2019-03-06T05:25:04.799Z,75.80
2019-03-06T05:25:36.314Z,75.85
2019-03-06T05:26:07.570Z,75.70
2019-03-06T05:26:38.772Z,75.78
2019-03-06T05:27:09.942Z,75.67
2019-03-06T05:27:41.163Z,75.67
2019-03-06T05:28:12.322Z,75.88
2019-03-06T05:28:43.537Z,75.91
2019-03-06T05:29:14.700Z,75.91
2019-03-06T05:29:45.923Z,75.99
2019-03-06T05:30:18.883Z,76.01
2019-03-06T05:30:50.106Z,75.90
2019-03-06T05:31:21.246Z,75.90
2019-03-06T05:32:33.042Z,76.09
2019-03-06T05:33:13.796Z,76.09
2019-03-06T05:33:44.986Z,76.06
2019-03-06T05:34:16.154Z,76.14
2019-03-06T05:34:47.591Z,76.20
2019-03-06T05:35:47.987Z,76.21
2019-03-06T05:36:48.907Z,76.39
2019-03-06T05:38:05.088Z,76.39
2019-03-06T05:38:47.585Z,76.53
2019-03-06T05:39:18.957Z,76.53
2019-03-06T05:39:50.189Z,76.62
2019-03-06T05:40:21.347Z,76.62
2019-03-06T05:40:53.554Z,76.67
2019-03-06T05:41:24.854Z,76.64
2019-03-06T05:41:56.037Z,76.80
2019-03-06T05:42:27.280Z,76.80
2019-03-06T05:42:58.473Z,76.75
2019-03-06T05:43:29.757Z,76.79
2019-03-06T05:44:00.939Z,76.82
2019-03-06T05:44:32.133Z,76.82
2019-03-06T05:45:05.919Z,76.77
2019-03-06T05:45:37.095Z,76.84
2019-03-06T05:46:08.275Z,76.93
2019-03-06T05:46:39.439Z,76.93
2019-03-06T05:47:10.899Z,76.98
2019-03-06T05:47:42.095Z,77.01
2019-03-06T05:48:13.267Z,77.01
2019-03-06T05:48:44.459Z,77.04
2019-03-06T05:49:15.632Z,77.11
2019-03-06T05:49:46.803Z,77.13
2019-03-06T05:50:18.008Z,77.14
2019-03-06T05:50:49.185Z,76.85
2019-03-06T05:51:20.374Z,77.16
2019-03-06T05:51:51.552Z,77.10
2019-03-06T05:52:22.744Z,77.13
2019-03-06T05:52:53.905Z,77.06
2019-03-06T05:53:25.152Z,77.06
2019-03-06T05:53:56.624Z,77.20
2019-03-06T05:54:27.833Z,77.20
2019-03-06T05:54:58.995Z,77.23
2019-03-06T05:55:30.210Z,77.11
2019-03-06T05:56:01.364Z,77.11
2019-03-06T05:56:32.734Z,77.26
2019-03-06T05:57:03.896Z,77.26
2019-03-06T05:57:35.102Z,77.26
2019-03-06T05:58:06.266Z,77.34
2019-03-06T05:58:37.476Z,77.33
2019-03-06T05:59:08.626Z,77.33
2019-03-06T05:59:39.824Z,77.37
2019-03-06T06:00:16.136Z,77.36
2019-03-06T06:00:47.336Z,77.36
2019-03-06T06:01:18.502Z,77.33
2019-03-06T06:01:50.009Z,77.26
2019-03-06T06:02:21.164Z,77.26
2019-03-06T06:02:52.371Z,77.58
2019-03-06T06:03:23.526Z,77.58
2019-03-06T06:03:54.726Z,77.40
2019-03-06T06:04:25.890Z,77.54
2019-03-06T06:04:57.100Z,77.54
2019-03-06T06:05:28.270Z,77.54
2019-03-06T06:05:59.737Z,77.44
2019-03-06T06:06:31.010Z,77.44
2019-03-06T06:07:02.220Z,77.58
2019-03-06T06:07:33.392Z,77.66
2019-03-06T06:08:04.584Z,77.66
2019-03-06T06:08:36.053Z,77.67
2019-03-06T06:09:07.253Z,77.73
2019-03-06T06:09:38.423Z,77.76
2019-03-06T06:10:14.538Z,77.83
2019-03-06T06:10:45.730Z,77.88
2019-03-06T06:11:16.909Z,77.88
2019-03-06T06:11:48.103Z,77.67
2019-03-06T06:12:19.291Z,77.67
2019-03-06T06:12:50.463Z,77.92
2019-03-06T06:13:21.634Z,77.92
2019-03-06T06:13:52.823Z,77.95
2019-03-06T06:14:24.017Z,77.74
2019-03-06T06:14:55.216Z,77.80
2019-03-06T06:15:26.375Z,77.80
2019-03-06T06:15:57.575Z,77.86
2019-03-06T06:16:29.224Z,77.75
2019-03-06T06:17:00.400Z,77.75
2019-03-06T06:17:31.587Z,77.86
2019-03-06T06:18:02.765Z,77.86
2019-03-06T06:18:33.944Z,77.83
2019-03-06T06:19:05.120Z,78.02
2019-03-06T06:19:36.410Z,77.88
2019-03-06T06:20:10.791Z,77.88
2019-03-06T06:20:41.973Z,78.01
2019-03-06T06:21:15.055Z,78.01
2019-03-06T06:21:48.128Z,77.94
2019-03-06T06:22:29.932Z,77.88
2019-03-06T06:23:05.868Z,77.88
2019-03-06T06:23:41.900Z,77.95
2019-03-06T06:24:13.066Z,77.95
2019-03-06T06:24:44.268Z,77.74
2019-03-06T06:25:15.435Z,77.60
2019-03-06T06:25:46.676Z,77.70
2019-03-06T06:26:17.956Z,77.70
2019-03-06T06:26:50.193Z,77.70
2019-03-06T06:27:21.442Z,77.71
2019-03-06T06:27:52.689Z,77.71
2019-03-06T06:28:23.938Z,77.83
2019-03-06T06:28:55.351Z,77.83
2019-03-06T06:29:26.595Z,77.86
2019-03-06T06:29:57.836Z,77.76
2019-03-06T06:30:29.404Z,77.76
2019-03-06T06:31:00.643Z,77.76
2019-03-06T06:31:31.932Z,77.67
2019-03-06T06:32:03.080Z,77.64
2019-03-06T06:32:34.294Z,77.66
2019-03-06T06:33:05.457Z,77.40
2019-03-06T06:33:36.677Z,77.40
2019-03-06T06:34:07.844Z,77.59
2019-03-06T06:34:39.079Z,77.58
2019-03-06T06:35:11.533Z,77.58
2019-03-06T06:35:42.947Z,77.65
2019-03-06T06:36:14.169Z,77.49
2019-03-06T06:36:45.403Z,77.53
2019-03-06T06:37:16.641Z,77.56
2019-03-06T06:37:47.901Z,77.48
2019-03-06T06:38:19.138Z,77.46
2019-03-06T06:38:50.370Z,77.38
2019-03-06T06:39:22.255Z,77.41
2019-03-06T06:39:53.527Z,77.46
2019-03-06T06:40:24.759Z,77.39
2019-03-06T06:40:55.986Z,77.31
2019-03-06T06:41:27.243Z,77.41
2019-03-06T06:41:58.423Z,77.41
2019-03-06T06:42:29.986Z,77.34
2019-03-06T06:43:01.178Z,77.06
2019-03-06T06:43:32.625Z,77.06
2019-03-06T06:44:03.775Z,77.21
2019-03-06T06:44:34.988Z,77.12
2019-03-06T06:45:12.677Z,77.10
2019-03-06T06:45:43.887Z,77.05
2019-03-06T06:46:15.152Z,77.12
2019-03-06T06:46:46.373Z,76.90
2019-03-06T06:47:17.577Z,77.00
2019-03-06T06:48:13.648Z,77.00
2019-03-06T06:48:44.817Z,77.06
2019-03-06T06:49:16.252Z,77.09
2019-03-06T06:49:47.457Z,77.00
2019-03-06T06:50:18.658Z,77.00
2019-03-06T06:51:03.950Z,77.00
2019-03-06T06:52:13.938Z,76.99
2019-03-06T06:53:24.017Z,76.99
2019-03-06T06:54:12.330Z,76.94
2019-03-06T06:55:06.738Z,76.94
2019-03-06T06:55:46.600Z,76.88
2019-03-06T06:56:41.732Z,76.88
2019-03-06T06:57:49.676Z,76.78